sensor_id;sensor_type;location;lat;lon;timestamp;pressure;altitude;pressure_sealevel;temperature;humidity
54854;BME280;40747;49.480;8.658;2023-08-21T00:02:23;100747.50;;;24.29;82.30
54854;BME280;40747;49.480;8.658;2023-08-21T00:04:50;100744.06;;;24.15;82.85
54854;BME280;40747;49.480;8.658;2023-08-21T00:07:15;100750.00;;;23.98;83.68
54854;BME280;40747;49.480;8.658;2023-08-21T00:09:41;100749.69;;;23.67;84.55
54854;BME280;40747;49.480;8.658;2023-08-21T00:12:06;100749.13;;;23.63;85.13
54854;BME280;40747;49.480;8.658;2023-08-21T00:14:32;100743.13;;;23.60;84.87
54854;BME280;40747;49.480;8.658;2023-08-21T00:16:57;100738.09;;;23.66;84.51
54854;BME280;40747;49.480;8.658;2023-08-21T00:19:22;100730.03;;;23.78;83.81
54854;BME280;40747;49.480;8.658;2023-08-21T00:21:47;100741.41;;;23.81;83.72
54854;BME280;40747;49.480;8.658;2023-08-21T00:24:13;100746.53;;;23.84;83.34
54854;BME280;40747;49.480;8.658;2023-08-21T00:26:38;100744.13;;;23.93;83.32
54854;BME280;40747;49.480;8.658;2023-08-21T00:29:03;100738.84;;;23.91;82.69
54854;BME280;40747;49.480;8.658;2023-08-21T00:31:28;100744.22;;;23.91;83.17
54854;BME280;40747;49.480;8.658;2023-08-21T00:33:54;100739.78;;;23.90;83.18
54854;BME280;40747;49.480;8.658;2023-08-21T00:36:19;100739.59;;;23.93;82.11
54854;BME280;40747;49.480;8.658;2023-08-21T00:38:45;100745.19;;;24.01;82.60
54854;BME280;40747;49.480;8.658;2023-08-21T00:41:10;100743.75;;;23.97;81.89
54854;BME280;40747;49.480;8.658;2023-08-21T00:43:36;100748.00;;;23.77;84.11
54854;BME280;40747;49.480;8.658;2023-08-21T00:46:01;100737.84;;;23.69;84.27
54854;BME280;40747;49.480;8.658;2023-08-21T00:48:26;100736.06;;;23.93;84.77
54854;BME280;40747;49.480;8.658;2023-08-21T00:50:52;100737.38;;;24.10;85.51
54854;BME280;40747;49.480;8.658;2023-08-21T00:53:17;100727.69;;;24.18;86.25
54854;BME280;40747;49.480;8.658;2023-08-21T00:55:43;100738.31;;;24.20;87.14
54854;BME280;40747;49.480;8.658;2023-08-21T00:58:09;100730.72;;;24.25;87.01
54854;BME280;40747;49.480;8.658;2023-08-21T01:00:36;100731.84;;;24.23;87.91
54854;BME280;40747;49.480;8.658;2023-08-21T01:03:02;100729.28;;;24.21;87.29
54854;BME280;40747;49.480;8.658;2023-08-21T01:05:27;100732.06;;;24.19;85.37
54854;BME280;40747;49.480;8.658;2023-08-21T01:08:05;100738.56;;;24.17;83.25
54854;BME280;40747;49.480;8.658;2023-08-21T01:10:52;100736.75;;;24.06;82.72
54854;BME280;40747;49.480;8.658;2023-08-21T01:13:28;100742.41;;;24.03;82.78
54854;BME280;40747;49.480;8.658;2023-08-21T01:15:58;100740.69;;;24.02;83.10
54854;BME280;40747;49.480;8.658;2023-08-21T01:18:26;100740.91;;;23.99;82.87
54854;BME280;40747;49.480;8.658;2023-08-21T01:20:52;100735.19;;;23.92;82.65
54854;BME280;40747;49.480;8.658;2023-08-21T01:25:58;100733.56;;;23.78;83.37
54854;BME280;40747;49.480;8.658;2023-08-21T01:28:24;100747.50;;;23.83;83.20
54854;BME280;40747;49.480;8.658;2023-08-21T01:30:51;100745.69;;;23.84;83.76
54854;BME280;40747;49.480;8.658;2023-08-21T01:33:21;100752.28;;;23.91;83.50
54854;BME280;40747;49.480;8.658;2023-08-21T01:35:48;100744.97;;;23.93;83.26
54854;BME280;40747;49.480;8.658;2023-08-21T01:38:14;100750.97;;;23.97;84.02
54854;BME280;40747;49.480;8.658;2023-08-21T01:40:40;100752.28;;;24.02;84.49
54854;BME280;40747;49.480;8.658;2023-08-21T01:43:05;100753.03;;;24.04;84.62
54854;BME280;40747;49.480;8.658;2023-08-21T01:45:30;100749.38;;;23.94;85.67
54854;BME280;40747;49.480;8.658;2023-08-21T01:47:55;100744.69;;;23.85;85.89
54854;BME280;40747;49.480;8.658;2023-08-21T01:50:21;100746.78;;;23.81;86.19
54854;BME280;40747;49.480;8.658;2023-08-21T01:52:46;100747.28;;;23.75;86.67
54854;BME280;40747;49.480;8.658;2023-08-21T01:55:11;100751.28;;;23.81;87.64
54854;BME280;40747;49.480;8.658;2023-08-21T01:57:37;100754.84;;;23.81;88.90
54854;BME280;40747;49.480;8.658;2023-08-21T02:00:03;100735.16;;;23.69;85.95
54854;BME280;40747;49.480;8.658;2023-08-21T02:02:32;100751.91;;;23.73;84.78
54854;BME280;40747;49.480;8.658;2023-08-21T02:04:57;100757.53;;;23.70;85.68
54854;BME280;40747;49.480;8.658;2023-08-21T02:07:22;100738.72;;;23.59;86.06
54854;BME280;40747;49.480;8.658;2023-08-21T02:09:48;100753.13;;;23.69;86.55
54854;BME280;40747;49.480;8.658;2023-08-21T02:12:13;100754.22;;;23.55;85.82
54854;BME280;40747;49.480;8.658;2023-08-21T02:14:38;100762.75;;;23.37;86.62
54854;BME280;40747;49.480;8.658;2023-08-21T02:17:04;100757.88;;;23.31;87.67
54854;BME280;40747;49.480;8.658;2023-08-21T02:19:30;100756.97;;;23.19;87.21
54854;BME280;40747;49.480;8.658;2023-08-21T02:21:56;100761.81;;;23.14;87.79
54854;BME280;40747;49.480;8.658;2023-08-21T02:24:21;100765.28;;;23.16;89.24
54854;BME280;40747;49.480;8.658;2023-08-21T02:26:46;100772.63;;;23.01;88.98
54854;BME280;40747;49.480;8.658;2023-08-21T02:29:12;100769.44;;;22.96;89.73
54854;BME280;40747;49.480;8.658;2023-08-21T02:31:37;100773.16;;;23.06;89.85
54854;BME280;40747;49.480;8.658;2023-08-21T02:34:02;100770.78;;;23.15;89.82
54854;BME280;40747;49.480;8.658;2023-08-21T02:36:27;100767.59;;;23.21;90.29
54854;BME280;40747;49.480;8.658;2023-08-21T02:38:53;100768.09;;;23.26;90.14
54854;BME280;40747;49.480;8.658;2023-08-21T02:41:18;100760.44;;;23.33;89.92
54854;BME280;40747;49.480;8.658;2023-08-21T02:43:43;100765.81;;;23.33;90.09
54854;BME280;40747;49.480;8.658;2023-08-21T02:46:09;100757.88;;;23.31;88.79
54854;BME280;40747;49.480;8.658;2023-08-21T02:48:34;100770.06;;;23.24;87.56
54854;BME280;40747;49.480;8.658;2023-08-21T02:50:59;100760.34;;;23.10;88.28
54854;BME280;40747;49.480;8.658;2023-08-21T02:53:25;100754.28;;;22.95;88.19
54854;BME280;40747;49.480;8.658;2023-08-21T02:55:50;100760.41;;;22.97;88.72
54854;BME280;40747;49.480;8.658;2023-08-21T02:58:15;100756.53;;;23.01;88.46
54854;BME280;40747;49.480;8.658;2023-08-21T03:00:41;100746.25;;;22.95;88.15
54854;BME280;40747;49.480;8.658;2023-08-21T03:03:06;100764.47;;;22.79;88.70
54854;BME280;40747;49.480;8.658;2023-08-21T03:05:31;100767.03;;;22.69;90.01
54854;BME280;40747;49.480;8.658;2023-08-21T03:07:56;100767.59;;;22.61;90.86
54854;BME280;40747;49.480;8.658;2023-08-21T03:10:22;100765.50;;;22.65;89.97
54854;BME280;40747;49.480;8.658;2023-08-21T03:12:48;100765.31;;;22.68;90.26
54854;BME280;40747;49.480;8.658;2023-08-21T03:15:14;100759.13;;;22.79;89.94
54854;BME280;40747;49.480;8.658;2023-08-21T03:17:39;100764.03;;;22.85;90.13
54854;BME280;40747;49.480;8.658;2023-08-21T03:20:05;100765.16;;;22.94;89.08
54854;BME280;40747;49.480;8.658;2023-08-21T03:22:30;100761.50;;;22.95;88.84
54854;BME280;40747;49.480;8.658;2023-08-21T03:24:56;100767.09;;;22.91;89.37
54854;BME280;40747;49.480;8.658;2023-08-21T03:27:22;100767.09;;;22.91;90.29
54854;BME280;40747;49.480;8.658;2023-08-21T03:29:47;100773.34;;;22.92;90.46
54854;BME280;40747;49.480;8.658;2023-08-21T03:32:18;100763.22;;;22.96;91.51
54854;BME280;40747;49.480;8.658;2023-08-21T03:34:43;100758.19;;;22.91;91.91
54854;BME280;40747;49.480;8.658;2023-08-21T03:37:09;100767.72;;;22.95;91.76
54854;BME280;40747;49.480;8.658;2023-08-21T03:39:35;100756.34;;;22.91;91.45
54854;BME280;40747;49.480;8.658;2023-08-21T03:42:00;100767.72;;;22.95;90.60
54854;BME280;40747;49.480;8.658;2023-08-21T03:44:26;100766.25;;;22.91;91.51
54854;BME280;40747;49.480;8.658;2023-08-21T03:46:51;100765.41;;;22.90;91.78
54854;BME280;40747;49.480;8.658;2023-08-21T03:49:16;100766.25;;;22.91;91.97
54854;BME280;40747;49.480;8.658;2023-08-21T03:51:41;100764.53;;;22.90;92.59
54854;BME280;40747;49.480;8.658;2023-08-21T03:54:07;100765.63;;;22.87;92.26
54854;BME280;40747;49.480;8.658;2023-08-21T03:56:32;100760.50;;;22.84;92.50
54854;BME280;40747;49.480;8.658;2023-08-21T03:58:57;100770.50;;;22.82;92.32
54854;BME280;40747;49.480;8.658;2023-08-21T04:01:22;100768.88;;;22.80;93.60
54854;BME280;40747;49.480;8.658;2023-08-21T04:03:48;100771.56;;;22.80;93.65
54854;BME280;40747;49.480;8.658;2023-08-21T04:06:13;100777.91;;;22.79;93.72
54854;BME280;40747;49.480;8.658;2023-08-21T04:08:38;100771.06;;;22.74;93.97
54854;BME280;40747;49.480;8.658;2023-08-21T04:11:05;100776.44;;;22.74;94.29
54854;BME280;40747;49.480;8.658;2023-08-21T04:13:31;100776.69;;;22.71;94.80
54854;BME280;40747;49.480;8.658;2023-08-21T04:15:56;100784.94;;;22.68;95.06
54854;BME280;40747;49.480;8.658;2023-08-21T04:18:22;100782.38;;;22.67;94.60
54854;BME280;40747;49.480;8.658;2023-08-21T04:20:48;100774.66;;;22.62;95.16
54854;BME280;40747;49.480;8.658;2023-08-21T04:23:13;100779.06;;;22.63;95.68
54854;BME280;40747;49.480;8.658;2023-08-21T04:25:38;100776.63;;;22.60;95.20
54854;BME280;40747;49.480;8.658;2023-08-21T04:28:05;100777.69;;;22.57;95.89
54854;BME280;40747;49.480;8.658;2023-08-21T04:30:32;100792.22;;;22.55;95.85
54854;BME280;40747;49.480;8.658;2023-08-21T04:32:57;100783.28;;;22.54;95.70
54854;BME280;40747;49.480;8.658;2023-08-21T04:35:24;100792.41;;;22.52;96.34
54854;BME280;40747;49.480;8.658;2023-08-21T04:37:49;100791.56;;;22.51;93.60
54854;BME280;40747;49.480;8.658;2023-08-21T04:40:15;100793.09;;;22.42;95.29
54854;BME280;40747;49.480;8.658;2023-08-21T04:42:40;100787.72;;;22.42;95.19
54854;BME280;40747;49.480;8.658;2023-08-21T04:45:06;100787.53;;;22.20;95.02
54854;BME280;40747;49.480;8.658;2023-08-21T04:47:31;100789.06;;;22.24;95.63
54854;BME280;40747;49.480;8.658;2023-08-21T04:49:57;100793.44;;;22.25;97.14
54854;BME280;40747;49.480;8.658;2023-08-21T04:52:23;100795.69;;;22.31;97.67
54854;BME280;40747;49.480;8.658;2023-08-21T04:54:49;100787.31;;;22.36;97.59
54854;BME280;40747;49.480;8.658;2023-08-21T04:57:15;100797.16;;;22.35;98.10
54854;BME280;40747;49.480;8.658;2023-08-21T04:59:40;100794.47;;;22.35;95.64
54854;BME280;40747;49.480;8.658;2023-08-21T05:02:06;100799.13;;;22.33;95.76
54854;BME280;40747;49.480;8.658;2023-08-21T05:04:31;100804.94;;;22.27;96.06
54854;BME280;40747;49.480;8.658;2023-08-21T05:06:57;100809.53;;;22.25;96.50
54854;BME280;40747;49.480;8.658;2023-08-21T05:09:22;100802.47;;;22.24;97.51
54854;BME280;40747;49.480;8.658;2023-08-21T05:11:47;100804.94;;;22.27;96.35
54854;BME280;40747;49.480;8.658;2023-08-21T05:14:13;100820.78;;;22.30;96.27
54854;BME280;40747;49.480;8.658;2023-08-21T05:16:38;100823.28;;;22.33;96.78
54854;BME280;40747;49.480;8.658;2023-08-21T05:19:03;100816.63;;;22.39;97.57
54854;BME280;40747;49.480;8.658;2023-08-21T05:21:29;100811.78;;;22.31;96.35
54854;BME280;40747;49.480;8.658;2023-08-21T05:23:54;100821.97;;;22.39;96.08
54854;BME280;40747;49.480;8.658;2023-08-21T05:26:19;100823.94;;;22.37;95.79
54854;BME280;40747;49.480;8.658;2023-08-21T05:28:45;100819.31;;;22.39;97.46
54854;BME280;40747;49.480;8.658;2023-08-21T05:31:10;100812.75;;;22.43;99.20
54854;BME280;40747;49.480;8.658;2023-08-21T05:33:35;100818.88;;;22.45;99.63
54854;BME280;40747;49.480;8.658;2023-08-21T05:36:00;100820.59;;;22.46;97.38
54854;BME280;40747;49.480;8.658;2023-08-21T05:38:26;100824.75;;;22.50;96.93
54854;BME280;40747;49.480;8.658;2023-08-21T05:40:51;100828.88;;;22.43;97.07
54854;BME280;40747;49.480;8.658;2023-08-21T05:43:16;100827.44;;;22.50;97.98
54854;BME280;40747;49.480;8.658;2023-08-21T05:45:42;100832.00;;;22.37;97.66
54854;BME280;40747;49.480;8.658;2023-08-21T05:48:07;100829.16;;;22.51;97.13
54854;BME280;40747;49.480;8.658;2023-08-21T05:50:33;100837.28;;;22.63;97.60
54854;BME280;40747;49.480;8.658;2023-08-21T05:52:58;100835.63;;;22.73;97.80
54854;BME280;40747;49.480;8.658;2023-08-21T05:55:26;100841.84;;;22.73;96.84
54854;BME280;40747;49.480;8.658;2023-08-21T05:57:51;100846.41;;;22.60;97.95
54854;BME280;40747;49.480;8.658;2023-08-21T06:00:17;100846.03;;;22.53;99.35
54854;BME280;40747;49.480;8.658;2023-08-21T06:02:42;100842.06;;;22.46;100.00
54854;BME280;40747;49.480;8.658;2023-08-21T06:05:08;100839.56;;;22.56;100.00
54854;BME280;40747;49.480;8.658;2023-08-21T06:07:34;100845.63;;;22.71;99.38
54854;BME280;40747;49.480;8.658;2023-08-21T06:09:59;100856.53;;;22.81;98.08
54854;BME280;40747;49.480;8.658;2023-08-21T06:12:24;100853.53;;;22.85;98.20
54854;BME280;40747;49.480;8.658;2023-08-21T06:14:50;100848.38;;;22.82;97.58
54854;BME280;40747;49.480;8.658;2023-08-21T06:17:16;100854.63;;;22.83;98.68
54854;BME280;40747;49.480;8.658;2023-08-21T06:19:41;100851.25;;;22.92;97.48
54854;BME280;40747;49.480;8.658;2023-08-21T06:22:07;100857.50;;;22.80;98.28
54854;BME280;40747;49.480;8.658;2023-08-21T06:24:32;100851.88;;;22.71;99.11
54854;BME280;40747;49.480;8.658;2023-08-21T06:26:57;100857.47;;;22.92;98.73
54854;BME280;40747;49.480;8.658;2023-08-21T06:29:23;100854.09;;;23.02;97.97
54854;BME280;40747;49.480;8.658;2023-08-21T06:31:49;100862.44;;;23.10;97.83
54854;BME280;40747;49.480;8.658;2023-08-21T06:34:14;100864.81;;;23.15;97.81
54854;BME280;40747;49.480;8.658;2023-08-21T06:36:40;100865.59;;;23.28;97.57
54854;BME280;40747;49.480;8.658;2023-08-21T06:39:05;100863.69;;;23.42;96.58
54854;BME280;40747;49.480;8.658;2023-08-21T06:41:30;100861.72;;;23.44;96.85
54854;BME280;40747;49.480;8.658;2023-08-21T06:43:57;100861.72;;;23.44;97.61
54854;BME280;40747;49.480;8.658;2023-08-21T06:46:22;100856.84;;;23.49;97.54
54854;BME280;40747;49.480;8.658;2023-08-21T06:48:48;100864.63;;;23.65;97.24
54854;BME280;40747;49.480;8.658;2023-08-21T06:51:15;100853.69;;;23.55;97.19
54854;BME280;40747;49.480;8.658;2023-08-21T06:53:40;100859.63;;;23.83;96.24
54854;BME280;40747;49.480;8.658;2023-08-21T06:56:06;100845.59;;;23.91;95.26
54854;BME280;40747;49.480;8.658;2023-08-21T06:58:32;100860.91;;;24.13;95.22
54854;BME280;40747;49.480;8.658;2023-08-21T07:00:57;100865.94;;;24.29;95.24
54854;BME280;40747;49.480;8.658;2023-08-21T07:03:22;100857.94;;;24.50;93.32
54854;BME280;40747;49.480;8.658;2023-08-21T07:05:55;100859.53;;;24.64;92.24
54854;BME280;40747;49.480;8.658;2023-08-21T07:08:23;100860.75;;;24.71;90.89
54854;BME280;40747;49.480;8.658;2023-08-21T07:10:49;100862.81;;;24.79;90.15
54854;BME280;40747;49.480;8.658;2023-08-21T07:13:14;100860.97;;;24.79;90.39
54854;BME280;40747;49.480;8.658;2023-08-21T07:15:40;100855.25;;;24.73;89.45
54854;BME280;40747;49.480;8.658;2023-08-21T07:18:05;100874.31;;;24.81;89.31
54854;BME280;40747;49.480;8.658;2023-08-21T07:20:30;100876.47;;;24.98;88.20
54854;BME280;40747;49.480;8.658;2023-08-21T07:22:56;100861.84;;;25.12;86.97
54854;BME280;40747;49.480;8.658;2023-08-21T07:25:21;100863.94;;;25.09;87.28
54854;BME280;40747;49.480;8.658;2023-08-21T07:27:46;100862.50;;;25.05;88.38
54854;BME280;40747;49.480;8.658;2023-08-21T07:30:12;100853.50;;;24.83;88.19
54854;BME280;40747;49.480;8.658;2023-08-21T07:32:37;100867.31;;;24.90;88.39
54854;BME280;40747;49.480;8.658;2023-08-21T07:35:03;100857.06;;;25.16;88.11
54854;BME280;40747;49.480;8.658;2023-08-21T07:37:28;100863.72;;;25.33;87.30
54854;BME280;40747;49.480;8.658;2023-08-21T07:39:54;100863.63;;;25.56;84.95
54854;BME280;40747;49.480;8.658;2023-08-21T07:42:22;100852.47;;;25.60;84.46
54854;BME280;40747;49.480;8.658;2023-08-21T07:44:48;100862.25;;;25.61;85.57
54854;BME280;40747;49.480;8.658;2023-08-21T07:47:13;100862.69;;;25.88;85.26
54854;BME280;40747;49.480;8.658;2023-08-21T07:49:38;100860.63;;;26.22;84.41
54854;BME280;40747;49.480;8.658;2023-08-21T07:52:04;100860.53;;;26.74;82.25
54854;BME280;40747;49.480;8.658;2023-08-21T07:54:29;100858.72;;;27.14;81.02
54854;BME280;40747;49.480;8.658;2023-08-21T07:56:55;100864.78;;;27.75;80.13
54854;BME280;40747;49.480;8.658;2023-08-21T07:59:20;100862.41;;;28.09;76.68
54854;BME280;40747;49.480;8.658;2023-08-21T08:01:45;100868.22;;;28.24;76.69
54854;BME280;40747;49.480;8.658;2023-08-21T08:04:11;100862.56;;;28.08;75.23
54854;BME280;40747;49.480;8.658;2023-08-21T08:06:36;100862.69;;;28.44;74.79
54854;BME280;40747;49.480;8.658;2023-08-21T08:09:02;100851.19;;;29.06;74.60
54854;BME280;40747;49.480;8.658;2023-08-21T08:11:29;100861.94;;;29.52;71.56
54854;BME280;40747;49.480;8.658;2023-08-21T08:13:54;100852.69;;;29.63;70.64
54854;BME280;40747;49.480;8.658;2023-08-21T08:16:20;100851.31;;;30.11;69.38
54854;BME280;40747;49.480;8.658;2023-08-21T08:18:45;100853.25;;;29.93;70.06
54854;BME280;40747;49.480;8.658;2023-08-21T08:21:10;100852.59;;;29.99;68.96
54854;BME280;40747;49.480;8.658;2023-08-21T08:23:36;100852.84;;;29.87;69.20
54854;BME280;40747;49.480;8.658;2023-08-21T08:26:01;100854.16;;;30.44;70.08
54854;BME280;40747;49.480;8.658;2023-08-21T08:28:27;100859.25;;;30.39;67.97
54854;BME280;40747;49.480;8.658;2023-08-21T08:30:52;100860.25;;;30.89;66.61
54854;BME280;40747;49.480;8.658;2023-08-21T08:33:18;100862.84;;;31.48;66.32
54854;BME280;40747;49.480;8.658;2023-08-21T08:35:43;100862.59;;;31.99;63.48
54854;BME280;40747;49.480;8.658;2023-08-21T08:38:09;100855.03;;;32.34;62.93
54854;BME280;40747;49.480;8.658;2023-08-21T08:40:37;100863.03;;;32.28;63.50
54854;BME280;40747;49.480;8.658;2023-08-21T08:43:06;100857.06;;;32.41;61.21
54854;BME280;40747;49.480;8.658;2023-08-21T08:45:32;100861.44;;;32.42;62.14
54854;BME280;40747;49.480;8.658;2023-08-21T08:48:01;100857.09;;;32.16;62.84
54854;BME280;40747;49.480;8.658;2023-08-21T08:50:31;100861.50;;;31.36;64.41
54854;BME280;40747;49.480;8.658;2023-08-21T08:52:57;100854.94;;;32.51;63.92
54854;BME280;40747;49.480;8.658;2023-08-21T08:55:23;100851.63;;;33.42;62.22
54854;BME280;40747;49.480;8.658;2023-08-21T08:57:48;100853.78;;;33.46;59.84
54854;BME280;40747;49.480;8.658;2023-08-21T09:00:14;100854.06;;;33.37;59.71
54854;BME280;40747;49.480;8.658;2023-08-21T09:02:40;100853.19;;;33.36;60.16
54854;BME280;40747;49.480;8.658;2023-08-21T09:05:05;100846.41;;;33.85;58.74
54854;BME280;40747;49.480;8.658;2023-08-21T09:07:31;100849.16;;;34.30;57.41
54854;BME280;40747;49.480;8.658;2023-08-21T09:09:57;100845.88;;;34.20;57.14
54854;BME280;40747;49.480;8.658;2023-08-21T09:12:22;100842.34;;;34.41;56.71
54854;BME280;40747;49.480;8.658;2023-08-21T09:14:48;100839.19;;;34.95;57.15
54854;BME280;40747;49.480;8.658;2023-08-21T09:17:14;100846.50;;;34.52;54.87
54854;BME280;40747;49.480;8.658;2023-08-21T09:19:40;100828.91;;;34.61;55.99
54854;BME280;40747;49.480;8.658;2023-08-21T09:22:14;100840.44;;;34.93;55.50
54854;BME280;40747;49.480;8.658;2023-08-21T09:24:41;100835.91;;;35.28;54.51
54854;BME280;40747;49.480;8.658;2023-08-21T09:27:24;100832.44;;;36.05;54.46
54854;BME280;40747;49.480;8.658;2023-08-21T09:29:49;100829.59;;;36.33;51.86
54854;BME280;40747;49.480;8.658;2023-08-21T09:32:24;100832.16;;;36.35;50.63
54854;BME280;40747;49.480;8.658;2023-08-21T09:34:49;100827.28;;;35.53;52.40
54854;BME280;40747;49.480;8.658;2023-08-21T09:37:16;100831.47;;;34.84;53.48
54854;BME280;40747;49.480;8.658;2023-08-21T09:39:42;100822.16;;;34.57;54.41
54854;BME280;40747;49.480;8.658;2023-08-21T09:42:08;100826.63;;;35.30;54.48
54854;BME280;40747;49.480;8.658;2023-08-21T09:44:40;100823.25;;;35.84;52.40
54854;BME280;40747;49.480;8.658;2023-08-21T09:47:11;100840.88;;;34.08;54.50
54854;BME280;40747;49.480;8.658;2023-08-21T09:49:37;100830.47;;;34.49;53.66
54854;BME280;40747;49.480;8.658;2023-08-21T09:52:05;100827.63;;;34.57;53.33
54854;BME280;40747;49.480;8.658;2023-08-21T09:54:34;100819.28;;;34.65;53.45
54854;BME280;40747;49.480;8.658;2023-08-21T09:57:02;100822.63;;;35.54;52.88
54854;BME280;40747;49.480;8.658;2023-08-21T09:59:28;100815.84;;;36.13;51.05
54854;BME280;40747;49.480;8.658;2023-08-21T10:01:54;100815.38;;;36.58;51.06
54854;BME280;40747;49.480;8.658;2023-08-21T10:04:23;100825.75;;;36.69;49.83
54854;BME280;40747;49.480;8.658;2023-08-21T10:06:51;100821.53;;;36.73;51.23
54854;BME280;40747;49.480;8.658;2023-08-21T10:09:19;100814.56;;;36.78;49.79
54854;BME280;40747;49.480;8.658;2023-08-21T10:11:46;100810.94;;;36.64;48.97
54854;BME280;40747;49.480;8.658;2023-08-21T10:14:12;100806.53;;;36.69;48.28
54854;BME280;40747;49.480;8.658;2023-08-21T10:16:38;100808.44;;;36.69;48.50
54854;BME280;40747;49.480;8.658;2023-08-21T10:19:04;100810.94;;;36.64;49.74
54854;BME280;40747;49.480;8.658;2023-08-21T10:21:34;100799.00;;;36.85;48.88
54854;BME280;40747;49.480;8.658;2023-08-21T10:24:01;100796.91;;;37.20;47.97
54854;BME280;40747;49.480;8.658;2023-08-21T10:26:26;100799.63;;;37.54;47.31
54854;BME280;40747;49.480;8.658;2023-08-21T10:28:54;100794.97;;;37.28;49.49
54854;BME280;40747;49.480;8.658;2023-08-21T10:31:39;100795.81;;;37.55;48.44
54854;BME280;40747;49.480;8.658;2023-08-21T10:34:06;100772.16;;;37.27;47.88
54854;BME280;40747;49.480;8.658;2023-08-21T10:39:23;100791.28;;;35.91;49.30
54854;BME280;40747;49.480;8.658;2023-08-21T10:42:08;100787.13;;;35.67;49.51
54854;BME280;40747;49.480;8.658;2023-08-21T10:49:56;100779.09;;;36.07;48.69
54854;BME280;40747;49.480;8.658;2023-08-21T10:52:45;100786.09;;;36.92;48.35
54854;BME280;40747;49.480;8.658;2023-08-21T10:55:14;100785.28;;;37.12;48.05
54854;BME280;40747;49.480;8.658;2023-08-21T10:57:40;100792.88;;;36.96;47.72
54854;BME280;40747;49.480;8.658;2023-08-21T11:00:11;100787.78;;;36.93;48.33
54854;BME280;40747;49.480;8.658;2023-08-21T11:02:38;100772.53;;;36.57;47.99
54854;BME280;40747;49.480;8.658;2023-08-21T11:05:04;100774.50;;;36.90;47.88
54854;BME280;40747;49.480;8.658;2023-08-21T11:07:30;100774.97;;;36.32;48.68
54854;BME280;40747;49.480;8.658;2023-08-21T11:10:01;100768.78;;;37.12;49.61
54854;BME280;40747;49.480;8.658;2023-08-21T11:12:26;100774.59;;;37.89;47.03
54854;BME280;40747;49.480;8.658;2023-08-21T11:14:51;100771.16;;;38.00;45.37
54854;BME280;40747;49.480;8.658;2023-08-21T11:17:17;100772.84;;;38.01;47.37
54854;BME280;40747;49.480;8.658;2023-08-21T11:19:43;100781.88;;;37.16;47.57
54854;BME280;40747;49.480;8.658;2023-08-21T11:22:10;100769.91;;;36.29;48.63
54854;BME280;40747;49.480;8.658;2023-08-21T11:24:43;100788.34;;;35.93;48.52
54854;BME280;40747;49.480;8.658;2023-08-21T11:27:11;100776.88;;;36.31;48.79
54854;BME280;40747;49.480;8.658;2023-08-21T11:29:45;100783.72;;;36.69;47.34
54854;BME280;40747;49.480;8.658;2023-08-21T11:32:21;100779.09;;;36.07;47.33
54854;BME280;40747;49.480;8.658;2023-08-21T11:34:52;100774.53;;;36.28;48.24
54854;BME280;40747;49.480;8.658;2023-08-21T11:37:19;100771.09;;;36.06;48.43
54854;BME280;40747;49.480;8.658;2023-08-21T11:39:48;100769.56;;;36.38;48.40
54854;BME280;40747;49.480;8.658;2023-08-21T11:42:14;100764.53;;;36.69;48.71
54854;BME280;40747;49.480;8.658;2023-08-21T11:44:43;100764.72;;;36.67;46.61
54854;BME280;40747;49.480;8.658;2023-08-21T11:47:09;100774.53;;;36.28;48.28
54854;BME280;40747;49.480;8.658;2023-08-21T11:49:41;100761.47;;;36.30;47.15
54854;BME280;40747;49.480;8.658;2023-08-21T11:52:09;100768.19;;;36.21;47.46
54854;BME280;40747;49.480;8.658;2023-08-21T11:54:35;100768.38;;;35.71;48.01
54854;BME280;40747;49.480;8.658;2023-08-21T11:57:07;100769.56;;;35.90;47.16
54854;BME280;40747;49.480;8.658;2023-08-21T11:59:33;100763.97;;;36.18;47.87
54854;BME280;40747;49.480;8.658;2023-08-21T12:01:58;100755.75;;;36.25;46.02
54854;BME280;40747;49.480;8.658;2023-08-21T12:04:24;100768.50;;;35.91;46.87
54854;BME280;40747;49.480;8.658;2023-08-21T12:06:49;100751.91;;;36.06;46.10
54854;BME280;40747;49.480;8.658;2023-08-21T12:09:15;100757.88;;;35.74;46.49
54854;BME280;40747;49.480;8.658;2023-08-21T12:11:40;100756.91;;;35.89;46.41
54854;BME280;40747;49.480;8.658;2023-08-21T12:14:06;100752.28;;;35.96;47.16
54854;BME280;40747;49.480;8.658;2023-08-21T12:16:31;100752.50;;;35.95;48.57
54854;BME280;40747;49.480;8.658;2023-08-21T12:18:57;100745.34;;;36.00;48.40
54854;BME280;40747;49.480;8.658;2023-08-21T12:21:23;100745.75;;;36.04;48.71
54854;BME280;40747;49.480;8.658;2023-08-21T12:23:48;100759.75;;;36.22;48.02
54854;BME280;40747;49.480;8.658;2023-08-21T12:26:14;100747.19;;;36.55;48.78
54854;BME280;40747;49.480;8.658;2023-08-21T12:28:46;100749.00;;;36.21;47.50
54854;BME280;40747;49.480;8.658;2023-08-21T12:31:11;100745.69;;;36.39;48.07
54854;BME280;40747;49.480;8.658;2023-08-21T12:33:36;100739.19;;;36.53;46.89
54854;BME280;40747;49.480;8.658;2023-08-21T12:36:01;100740.69;;;36.69;46.84
54854;BME280;40747;49.480;8.658;2023-08-21T12:38:28;100749.31;;;36.60;47.46
54854;BME280;40747;49.480;8.658;2023-08-21T12:40:54;100739.53;;;36.30;45.96
54854;BME280;40747;49.480;8.658;2023-08-21T12:43:20;100736.13;;;36.15;45.58
54854;BME280;40747;49.480;8.658;2023-08-21T12:45:45;100736.31;;;36.06;45.77
54854;BME280;40747;49.480;8.658;2023-08-21T12:48:11;100731.28;;;36.17;44.89
54854;BME280;40747;49.480;8.658;2023-08-21T12:50:36;100727.28;;;35.36;46.99
54854;BME280;40747;49.480;8.658;2023-08-21T12:53:01;100718.19;;;35.70;47.28
54854;BME280;40747;49.480;8.658;2023-08-21T12:55:28;100721.66;;;35.86;47.72
54854;BME280;40747;49.480;8.658;2023-08-21T12:57:55;100714.41;;;36.20;45.39